createdAt,value
2023-09-23T00:02:02.108Z,1.27
2023-09-23T00:04:30.792Z,0.43
2023-09-23T00:06:57.276Z,1.03
2023-09-23T00:09:23.839Z,0.93
2023-09-23T00:11:50.142Z,1.65
2023-09-23T00:14:16.454Z,2.35
2023-09-23T00:16:43.661Z,0.60
2023-09-23T00:19:10.164Z,1.93
2023-09-23T00:21:36.826Z,0.70
2023-09-23T00:24:03.329Z,2.08
2023-09-23T00:26:29.724Z,0.65
2023-09-23T00:28:56.048Z,0.80
2023-09-23T00:31:23.830Z,0.70
2023-09-23T00:33:50.123Z,0.70
2023-09-23T00:36:16.554Z,0.60
2023-09-23T00:38:42.874Z,0.70
2023-09-23T00:41:09.735Z,0.47
2023-09-23T00:43:36.591Z,1.17
2023-09-23T00:46:07.276Z,0.52
2023-09-23T00:48:37.544Z,0.73
2023-09-23T00:51:04.338Z,0.50
2023-09-23T00:53:31.080Z,0.52
2023-09-23T00:56:01.881Z,0.70
2023-09-23T00:58:28.284Z,1.25
2023-09-23T01:00:56.099Z,0.82
2023-09-23T01:03:22.945Z,0.70
2023-09-23T01:06:00.340Z,1.35
2023-09-23T01:08:26.673Z,1.33
2023-09-23T01:10:53.726Z,1.77
2023-09-23T01:13:25.696Z,1.10
2023-09-23T01:15:52.667Z,2.35
2023-09-23T01:18:19.177Z,0.73
2023-09-23T01:20:49.278Z,0.67
2023-09-23T01:23:16.796Z,1.20
2023-09-23T01:25:43.286Z,1.17
2023-09-23T01:28:12.221Z,1.00
2023-09-23T01:30:39.179Z,1.38
2023-09-23T01:33:17.696Z,1.07
2023-09-23T01:35:45.013Z,0.90
2023-09-23T01:38:12.454Z,1.55
2023-09-23T01:40:40.710Z,2.13
2023-09-23T01:43:12.615Z,1.30
2023-09-23T01:45:39.615Z,0.90
2023-09-23T01:48:07.313Z,2.22
2023-09-23T01:50:33.683Z,2.22
2023-09-23T01:53:03.302Z,0.80
2023-09-23T01:55:29.766Z,2.75
2023-09-23T01:57:56.160Z,0.97
2023-09-23T02:00:30.164Z,1.30
2023-09-23T02:02:57.271Z,1.38
2023-09-23T02:05:25.294Z,2.35
2023-09-23T02:07:51.808Z,1.58
2023-09-23T02:10:18.828Z,1.50
2023-09-23T02:12:45.633Z,1.10
2023-09-23T02:15:16.190Z,1.92
2023-09-23T02:17:45.870Z,1.20
2023-09-23T02:20:14.062Z,2.17
2023-09-23T02:22:43.031Z,1.47
2023-09-23T02:25:13.139Z,2.05
2023-09-23T02:27:39.939Z,1.58
2023-09-23T02:30:08.060Z,2.47
2023-09-23T02:32:35.581Z,1.88
2023-09-23T02:35:01.942Z,1.90
2023-09-23T02:37:28.280Z,3.42
2023-09-23T02:39:54.682Z,2.08
2023-09-23T02:42:21.012Z,2.50
2023-09-23T02:44:47.759Z,2.70
2023-09-23T02:47:14.179Z,3.27
2023-09-23T02:49:40.669Z,1.38
2023-09-23T02:52:07.631Z,1.10
2023-09-23T02:54:33.931Z,2.15
2023-09-23T02:57:04.744Z,1.58
2023-09-23T02:59:32.471Z,1.23
2023-09-23T03:01:59.487Z,1.75
2023-09-23T03:04:26.412Z,1.33
2023-09-23T03:07:02.630Z,1.20
2023-09-23T03:09:33.559Z,2.67
2023-09-23T03:12:01.710Z,1.83
2023-09-23T03:14:36.899Z,1.25
2023-09-23T03:17:04.767Z,2.38
2023-09-23T03:19:33.264Z,2.95
2023-09-23T03:22:00.316Z,2.97
2023-09-23T03:24:27.286Z,1.60
2023-09-23T03:26:54.828Z,2.00
2023-09-23T03:29:21.782Z,1.10
2023-09-23T03:31:48.318Z,3.88
2023-09-23T03:34:15.534Z,2.25
2023-09-23T03:36:42.502Z,4.50
2023-09-23T03:39:09.594Z,1.42
2023-09-23T03:41:37.012Z,4.57
2023-09-23T03:44:04.627Z,1.15
2023-09-23T03:46:31.314Z,1.17
2023-09-23T03:48:58.225Z,1.73
2023-09-23T03:51:25.288Z,2.50
2023-09-23T03:53:52.365Z,2.90
2023-09-23T03:56:20.697Z,2.60
2023-09-23T03:58:47.314Z,2.10
2023-09-23T04:01:16.868Z,1.53
2023-09-23T04:03:43.653Z,1.60
2023-09-23T04:06:10.011Z,2.13
2023-09-23T04:08:36.326Z,2.20
2023-09-23T04:11:06.593Z,2.22
2023-09-23T04:13:33.062Z,2.17
2023-09-23T04:16:01.500Z,2.88
2023-09-23T04:18:28.763Z,1.88
2023-09-23T04:20:55.216Z,2.17
2023-09-23T04:23:21.880Z,3.40
2023-09-23T04:25:49.444Z,4.40
2023-09-23T04:28:15.880Z,4.25
2023-09-23T04:30:42.187Z,3.05
2023-09-23T04:33:08.700Z,4.22
2023-09-23T04:35:36.053Z,5.28
2023-09-23T04:38:02.574Z,6.17
2023-09-23T04:40:29.004Z,3.42
2023-09-23T04:42:55.353Z,3.15
2023-09-23T04:45:21.807Z,2.65
2023-09-23T04:47:51.704Z,2.45
2023-09-23T04:50:18.785Z,5.33
2023-09-23T04:52:45.418Z,4.25
2023-09-23T04:55:12.549Z,5.32
2023-09-23T04:57:39.496Z,3.65
2023-09-23T05:00:08.423Z,2.72
2023-09-23T05:02:34.796Z,2.10
2023-09-23T05:05:01.302Z,3.95
2023-09-23T05:07:28.226Z,3.03
2023-09-23T05:09:57.407Z,2.35
2023-09-23T05:12:24.800Z,2.22
2023-09-23T05:14:51.862Z,3.60
2023-09-23T05:17:19.472Z,4.25
2023-09-23T05:19:48.831Z,2.75
2023-09-23T05:22:15.249Z,3.25
2023-09-23T05:24:42.827Z,3.67
2023-09-23T05:27:09.659Z,3.73
2023-09-23T05:29:36.061Z,4.30
2023-09-23T05:32:02.458Z,4.03
2023-09-23T05:34:28.837Z,3.63
2023-09-23T05:36:55.200Z,2.42
2023-09-23T05:39:21.541Z,4.27
2023-09-23T05:41:52.412Z,3.85
2023-09-23T05:44:20.061Z,3.38
2023-09-23T05:46:49.579Z,5.03
2023-09-23T05:49:16.285Z,3.72
2023-09-23T05:51:43.237Z,5.43
2023-09-23T05:54:09.846Z,4.47
2023-09-23T05:56:36.254Z,5.50
2023-09-23T05:59:03.476Z,5.22
2023-09-23T06:01:29.807Z,4.20
2023-09-23T06:03:57.581Z,4.13
2023-09-23T06:06:23.971Z,4.60
2023-09-23T06:08:51.636Z,4.70
2023-09-23T06:11:18.404Z,2.50
2023-09-23T06:13:44.909Z,3.22
2023-09-23T06:16:11.395Z,3.17
2023-09-23T06:18:37.706Z,4.00
2023-09-23T06:21:05.181Z,3.58
2023-09-23T06:23:32.087Z,4.97
2023-09-23T06:26:02.049Z,3.00
2023-09-23T06:28:28.926Z,3.10
2023-09-23T06:30:55.333Z,4.10
2023-09-23T06:33:22.933Z,3.55
2023-09-23T06:35:49.280Z,3.10
2023-09-23T06:38:15.772Z,2.83
2023-09-23T06:40:42.078Z,5.30
2023-09-23T06:43:08.463Z,2.85
2023-09-23T06:45:34.801Z,3.38
2023-09-23T06:48:01.144Z,6.32
2023-09-23T06:50:27.504Z,5.93
2023-09-23T06:52:53.932Z,4.70
2023-09-23T06:55:20.288Z,5.45
2023-09-23T06:57:46.641Z,3.10
2023-09-23T07:00:13.314Z,4.28
2023-09-23T07:02:39.841Z,7.90
2023-09-23T07:05:06.748Z,6.67
2023-09-23T07:07:33.281Z,2.78
2023-09-23T07:10:00.717Z,2.58
2023-09-23T07:12:27.048Z,2.47
2023-09-23T07:14:53.677Z,2.25
2023-09-23T07:17:20.680Z,2.80
2023-09-23T07:19:48.173Z,4.78
2023-09-23T07:22:14.509Z,3.75
2023-09-23T07:24:40.802Z,3.38
2023-09-23T07:27:07.113Z,1.67
2023-09-23T07:29:34.424Z,2.60
2023-09-23T07:32:00.888Z,2.95
2023-09-23T07:34:27.585Z,4.75
2023-09-23T07:36:53.949Z,1.80
2023-09-23T07:39:20.260Z,2.85
2023-09-23T07:41:46.645Z,2.07
2023-09-23T07:44:13.083Z,1.88
2023-09-23T07:46:39.482Z,3.60
2023-09-23T07:49:06.221Z,3.53
2023-09-23T07:51:32.537Z,1.80
2023-09-23T07:53:58.839Z,2.10
2023-09-23T07:56:25.171Z,2.90
2023-09-23T07:58:51.556Z,3.60
2023-09-23T08:01:18.454Z,3.80
2023-09-23T08:03:45.040Z,3.78
2023-09-23T08:06:12.014Z,3.80
2023-09-23T08:08:38.352Z,2.55
2023-09-23T08:11:04.693Z,3.08
2023-09-23T08:13:31.049Z,2.25
2023-09-23T08:15:57.966Z,2.60
2023-09-23T08:18:24.313Z,2.67
2023-09-23T08:20:57.660Z,1.77
2023-09-23T08:23:24.016Z,2.15
2023-09-23T08:25:50.393Z,3.53
2023-09-23T08:28:19.959Z,1.67
2023-09-23T08:30:47.862Z,2.67
2023-09-23T08:33:14.351Z,4.10
2023-09-23T08:35:42.761Z,2.25
2023-09-23T08:38:09.519Z,2.97
2023-09-23T08:40:37.208Z,2.10
2023-09-23T08:43:05.267Z,1.63
2023-09-23T08:45:31.856Z,2.13
2023-09-23T08:47:58.695Z,2.13
2023-09-23T08:50:25.835Z,2.85
2023-09-23T08:52:53.119Z,2.05
2023-09-23T08:55:19.742Z,2.17
2023-09-23T08:57:46.322Z,1.90
2023-09-23T09:00:14.655Z,2.58
2023-09-23T09:02:41.027Z,2.92
2023-09-23T09:05:07.705Z,1.83
2023-09-23T09:07:37.584Z,2.87
2023-09-23T09:10:04.300Z,2.65
2023-09-23T09:12:34.502Z,1.95
2023-09-23T09:15:01.371Z,7.13
2023-09-23T09:17:27.887Z,2.83
2023-09-23T09:19:54.399Z,2.37
2023-09-23T09:22:20.813Z,1.75
2023-09-23T09:24:51.848Z,5.43
2023-09-23T09:27:18.173Z,1.95
2023-09-23T09:29:44.677Z,3.05
2023-09-23T09:32:11.584Z,1.67
2023-09-23T09:34:43.539Z,4.10
2023-09-23T09:37:11.371Z,3.15
2023-09-23T09:39:43.066Z,1.58
2023-09-23T09:42:13.414Z,1.67
2023-09-23T09:44:41.030Z,3.33
2023-09-23T09:47:08.215Z,3.35
2023-09-23T09:49:35.539Z,3.55
2023-09-23T09:52:01.889Z,2.95
2023-09-23T09:54:28.515Z,3.72
2023-09-23T09:56:57.038Z,1.40
2023-09-23T09:59:27.611Z,1.48
2023-09-23T10:01:58.331Z,2.70
2023-09-23T10:04:30.227Z,2.47
2023-09-23T10:06:57.591Z,2.72
2023-09-23T10:09:28.234Z,1.67
2023-09-23T10:11:56.006Z,4.20
2023-09-23T10:14:23.539Z,1.67
2023-09-23T10:16:53.804Z,2.25
2023-09-23T10:19:32.891Z,3.25
2023-09-23T10:22:10.666Z,3.17
2023-09-23T10:24:36.992Z,2.42
2023-09-23T10:27:07.335Z,1.55
2023-09-23T10:29:48.207Z,1.75
2023-09-23T10:32:18.328Z,1.65
2023-09-23T10:34:48.441Z,3.63
2023-09-23T10:37:24.051Z,2.55
2023-09-23T10:39:50.454Z,2.40
2023-09-23T10:42:16.764Z,3.15
2023-09-23T10:44:43.155Z,2.67
2023-09-23T10:47:09.769Z,2.30
2023-09-23T10:49:36.524Z,3.72
2023-09-23T10:52:03.288Z,1.90
2023-09-23T10:54:30.256Z,3.08
2023-09-23T10:56:56.989Z,2.63
2023-09-23T10:59:23.390Z,2.93
2023-09-23T11:01:50.686Z,3.53
2023-09-23T11:04:20.573Z,2.95
2023-09-23T11:06:46.992Z,2.40
2023-09-23T11:09:13.307Z,3.10
2023-09-23T11:11:40.955Z,2.67
2023-09-23T11:14:14.250Z,1.90
2023-09-23T11:16:44.827Z,2.75
2023-09-23T11:19:11.333Z,3.53
2023-09-23T11:21:47.356Z,2.03
2023-09-23T11:24:14.499Z,2.30
2023-09-23T11:26:42.109Z,2.28
2023-09-23T11:29:08.902Z,1.40
2023-09-23T11:31:35.586Z,2.50
2023-09-23T11:34:02.247Z,3.58
2023-09-23T11:36:29.323Z,2.77
2023-09-23T11:38:55.643Z,1.98
2023-09-23T11:41:22.134Z,3.35
2023-09-23T11:43:51.414Z,2.28
2023-09-23T11:46:20.948Z,2.40
2023-09-23T11:48:49.501Z,2.13
2023-09-23T11:51:19.122Z,2.17
2023-09-23T11:53:46.054Z,1.30
2023-09-23T11:56:12.798Z,3.75
2023-09-23T11:58:39.127Z,4.35
2023-09-23T12:01:06.286Z,1.90
2023-09-23T12:03:32.892Z,2.00
2023-09-23T12:05:59.381Z,2.30
2023-09-23T12:08:25.772Z,4.45
2023-09-23T12:10:52.420Z,3.75
2023-09-23T12:13:19.707Z,2.97
2023-09-23T12:15:46.048Z,2.83
2023-09-23T12:18:12.486Z,3.17
2023-09-23T12:20:38.914Z,2.42
2023-09-23T12:23:05.312Z,2.72
2023-09-23T12:25:31.685Z,3.73
2023-09-23T12:27:58.086Z,2.45
2023-09-23T12:30:24.419Z,2.85
2023-09-23T12:32:50.886Z,3.00
2023-09-23T12:35:17.326Z,2.97
2023-09-23T12:37:43.721Z,3.90
2023-09-23T12:40:11.146Z,4.93
2023-09-23T12:42:37.555Z,3.00
2023-09-23T12:45:06.629Z,2.83
2023-09-23T12:47:48.810Z,4.22
2023-09-23T12:50:19.491Z,3.43
2023-09-23T12:52:45.986Z,3.20
2023-09-23T12:55:12.314Z,2.55
2023-09-23T12:57:39.015Z,2.92
2023-09-23T13:00:06.240Z,4.97
2023-09-23T13:02:32.618Z,2.10
2023-09-23T13:04:59.823Z,2.13
2023-09-23T13:07:26.288Z,3.13
2023-09-23T13:09:52.596Z,3.63
2023-09-23T13:12:18.942Z,1.63
2023-09-23T13:14:45.258Z,6.93
2023-09-23T13:17:11.725Z,3.20
2023-09-23T13:19:38.150Z,2.72
2023-09-23T13:22:04.704Z,2.42
2023-09-23T13:24:32.527Z,3.38
2023-09-23T13:26:58.851Z,3.07
2023-09-23T13:29:25.355Z,3.78
2023-09-23T13:31:51.704Z,4.13
2023-09-23T13:34:18.196Z,2.95
2023-09-23T13:36:44.526Z,2.15
2023-09-23T13:39:10.930Z,3.60
2023-09-23T13:41:37.293Z,4.20
2023-09-23T13:44:03.994Z,3.30
2023-09-23T13:46:30.496Z,3.03
2023-09-23T13:48:56.911Z,3.13
2023-09-23T13:51:23.261Z,3.43
2023-09-23T13:53:49.554Z,2.20
2023-09-23T13:56:16.022Z,2.75
2023-09-23T13:58:42.371Z,2.10
2023-09-23T14:01:09.826Z,3.38
2023-09-23T14:03:36.282Z,1.57
2023-09-23T14:06:04.762Z,2.50
2023-09-23T14:08:32.331Z,2.95
2023-09-23T14:10:58.739Z,2.83
2023-09-23T14:13:25.103Z,2.17
2023-09-23T14:15:51.446Z,1.50
2023-09-23T14:18:17.793Z,2.53
2023-09-23T14:20:45.293Z,2.92
2023-09-23T14:23:12.040Z,3.10
2023-09-23T14:25:38.391Z,2.05
2023-09-23T14:28:04.836Z,2.03
2023-09-23T14:30:31.145Z,3.65
2023-09-23T14:32:58.110Z,3.95
2023-09-23T14:35:24.559Z,3.60
2023-09-23T14:37:50.977Z,1.73
2023-09-23T14:40:17.595Z,2.93
2023-09-23T14:42:44.016Z,1.80
2023-09-23T14:45:10.466Z,2.60
2023-09-23T14:47:37.804Z,2.88
2023-09-23T14:50:04.776Z,2.05
2023-09-23T14:52:31.130Z,2.73
2023-09-23T14:54:57.436Z,3.05
2023-09-23T14:57:23.734Z,3.92
2023-09-23T14:59:50.200Z,4.20
2023-09-23T15:02:16.628Z,4.35
2023-09-23T15:04:42.997Z,3.03
2023-09-23T15:07:09.392Z,2.03
2023-09-23T15:09:35.842Z,2.03
2023-09-23T15:12:02.164Z,3.00
2023-09-23T15:14:28.467Z,3.97
2023-09-23T15:16:54.763Z,1.47
2023-09-23T15:19:21.082Z,2.40
2023-09-23T15:21:47.779Z,3.97
2023-09-23T15:24:15.352Z,2.97
2023-09-23T15:26:42.837Z,3.35
2023-09-23T15:29:10.813Z,2.23
2023-09-23T15:31:37.488Z,3.15
2023-09-23T15:34:04.484Z,2.60
2023-09-23T15:36:30.816Z,2.45
2023-09-23T15:38:57.333Z,2.47
2023-09-23T15:41:24.324Z,3.43
2023-09-23T15:43:52.143Z,3.22
2023-09-23T15:46:18.572Z,3.13
2023-09-23T15:48:44.916Z,3.53
2023-09-23T15:51:15.945Z,2.67
2023-09-23T15:53:42.408Z,4.47
2023-09-23T15:56:10.147Z,4.00
2023-09-23T15:58:39.066Z,4.25
2023-09-23T16:01:06.056Z,3.38
2023-09-23T16:03:33.762Z,3.35
2023-09-23T16:06:00.592Z,1.77
2023-09-23T16:08:27.235Z,3.30
2023-09-23T16:10:53.992Z,2.90
2023-09-23T16:13:20.379Z,2.72
2023-09-23T16:15:47.162Z,3.83
2023-09-23T16:18:15.565Z,3.20
2023-09-23T16:20:42.060Z,1.92
2023-09-23T16:23:08.430Z,3.45
2023-09-23T16:25:34.751Z,3.05
2023-09-23T16:28:01.055Z,3.72
2023-09-23T16:30:27.474Z,3.03
2023-09-23T16:32:54.963Z,3.85
2023-09-23T16:35:21.599Z,3.17
2023-09-23T16:37:48.250Z,2.60
2023-09-23T16:40:14.751Z,3.08
2023-09-23T16:42:41.176Z,3.50
2023-09-23T16:45:07.702Z,3.58
2023-09-23T16:47:34.087Z,3.33
2023-09-23T16:50:00.436Z,4.18
2023-09-23T16:52:26.766Z,4.10
2023-09-23T16:54:53.092Z,3.60
2023-09-23T16:57:22.898Z,2.78
2023-09-23T16:59:49.485Z,3.92
2023-09-23T17:02:18.596Z,4.10
2023-09-23T17:04:45.866Z,4.68
2023-09-23T17:07:14.173Z,4.13
2023-09-23T17:09:41.119Z,2.63
2023-09-23T17:12:07.927Z,2.15
2023-09-23T17:14:34.306Z,3.17
2023-09-23T17:17:00.636Z,2.28
2023-09-23T17:19:26.975Z,3.57
2023-09-23T17:21:53.328Z,3.38
2023-09-23T17:24:19.627Z,2.15
2023-09-23T17:26:46.040Z,2.92
2023-09-23T17:29:12.361Z,3.63
2023-09-23T17:31:38.902Z,3.03
2023-09-23T17:34:05.382Z,4.68
2023-09-23T17:36:31.885Z,3.35
2023-09-23T17:38:58.203Z,3.00
2023-09-23T17:41:24.542Z,6.72
2023-09-23T17:43:50.853Z,2.40
2023-09-23T17:46:17.242Z,2.75
2023-09-23T17:48:43.606Z,1.45
2023-09-23T17:51:10.175Z,4.90
2023-09-23T17:53:36.540Z,2.95
2023-09-23T17:56:02.977Z,3.93
2023-09-23T17:58:29.386Z,2.65
2023-09-23T18:00:55.757Z,2.47
2023-09-23T18:03:27.220Z,3.78
2023-09-23T18:05:54.095Z,2.85
2023-09-23T18:08:20.665Z,3.47
2023-09-23T18:10:47.315Z,5.13
2023-09-23T18:13:13.610Z,3.63
2023-09-23T18:15:39.948Z,3.78
2023-09-23T18:18:06.543Z,3.85
2023-09-23T18:20:33.965Z,3.30
2023-09-23T18:23:00.400Z,3.50
2023-09-23T18:25:26.911Z,3.13
2023-09-23T18:27:53.280Z,3.50
2023-09-23T18:30:22.323Z,2.88
2023-09-23T18:32:49.042Z,4.17
2023-09-23T18:35:15.812Z,4.85
2023-09-23T18:37:42.415Z,4.40
2023-09-23T18:40:10.720Z,3.47
2023-09-23T18:42:37.072Z,3.70
2023-09-23T18:45:03.726Z,1.93
2023-09-23T18:47:30.184Z,3.95
2023-09-23T18:49:56.613Z,5.18
2023-09-23T18:52:22.964Z,3.40
2023-09-23T18:54:49.417Z,3.67
2023-09-23T18:57:15.952Z,3.23
2023-09-23T18:59:42.368Z,3.75
2023-09-23T19:02:10.389Z,7.30
2023-09-23T19:04:36.852Z,4.90
2023-09-23T19:07:03.274Z,6.28
2023-09-23T19:09:32.230Z,6.77
2023-09-23T19:11:58.772Z,7.07
2023-09-23T19:14:25.133Z,7.63
2023-09-23T19:16:54.574Z,9.57
2023-09-23T19:19:20.962Z,5.45
2023-09-23T19:21:47.716Z,6.60
2023-09-23T19:24:14.046Z,9.27
2023-09-23T19:26:53.740Z,5.63
2023-09-23T19:29:23.288Z,7.22
2023-09-23T19:31:49.616Z,7.03
2023-09-23T19:34:15.990Z,4.97
2023-09-23T19:36:42.392Z,5.68
2023-09-23T19:39:08.804Z,6.70
2023-09-23T19:41:35.325Z,3.33
2023-09-23T19:44:02.149Z,5.00
2023-09-23T19:46:28.553Z,5.40
2023-09-23T19:48:55.053Z,3.13
2023-09-23T19:51:29.227Z,4.43
2023-09-23T19:53:55.618Z,3.88
2023-09-23T19:56:22.585Z,3.75
2023-09-23T19:58:48.988Z,4.67
2023-09-23T20:01:16.261Z,4.00
2023-09-23T20:03:42.882Z,3.53
2023-09-23T20:06:10.406Z,2.60
2023-09-23T20:08:37.268Z,2.67
2023-09-23T20:11:05.291Z,3.17
2023-09-23T20:13:31.748Z,2.85
2023-09-23T20:15:59.192Z,3.53
2023-09-23T20:18:25.669Z,3.90
2023-09-23T20:20:52.166Z,4.63
2023-09-23T20:23:18.549Z,5.23
2023-09-23T20:25:49.448Z,5.78
2023-09-23T20:28:17.131Z,4.75
2023-09-23T20:30:49.001Z,5.75
2023-09-23T20:33:19.489Z,5.88
2023-09-23T20:35:46.546Z,6.60
2023-09-23T20:38:14.044Z,5.80
2023-09-23T20:40:43.070Z,6.82
2023-09-23T20:43:10.914Z,6.20
2023-09-23T20:45:41.887Z,5.80
2023-09-23T20:48:09.287Z,5.50
2023-09-23T20:50:36.418Z,6.32
2023-09-23T20:53:02.826Z,3.88
2023-09-23T20:55:30.068Z,4.28
2023-09-23T20:57:56.396Z,5.13
2023-09-23T21:00:22.976Z,2.57
2023-09-23T21:02:49.924Z,4.20
2023-09-23T21:05:16.306Z,3.15
2023-09-23T21:07:42.768Z,5.43
2023-09-23T21:10:11.015Z,5.32
2023-09-23T21:12:37.585Z,5.73
2023-09-23T21:15:04.642Z,3.67
2023-09-23T21:17:31.834Z,3.92
2023-09-23T21:19:58.238Z,3.63
2023-09-23T21:22:25.147Z,3.67
2023-09-23T21:24:52.062Z,2.83
2023-09-23T21:27:18.456Z,2.65
2023-09-23T21:29:44.900Z,4.32
2023-09-23T21:32:11.313Z,3.67
2023-09-23T21:34:37.645Z,3.65
2023-09-23T21:37:04.016Z,4.30
2023-09-23T21:39:30.381Z,4.70
2023-09-23T21:41:56.724Z,5.82
2023-09-23T21:44:27.879Z,4.30
2023-09-23T21:46:54.299Z,5.47
2023-09-23T21:49:20.717Z,7.70
2023-09-23T21:51:47.042Z,4.65
2023-09-23T21:54:14.387Z,3.38
2023-09-23T21:56:44.141Z,3.75
2023-09-23T21:59:11.398Z,3.63
2023-09-23T22:01:38.146Z,3.83
2023-09-23T22:04:05.127Z,2.70
2023-09-23T22:06:31.701Z,3.80
2023-09-23T22:08:57.994Z,3.50
2023-09-23T22:11:24.355Z,3.25
2023-09-23T22:13:50.878Z,3.83
2023-09-23T22:16:17.780Z,2.80
2023-09-23T22:18:44.136Z,2.45
2023-09-23T22:21:10.457Z,2.00
2023-09-23T22:23:37.939Z,2.75
2023-09-23T22:26:04.539Z,3.90
2023-09-23T22:28:30.918Z,3.50
2023-09-23T22:30:57.566Z,3.35
2023-09-23T22:33:24.129Z,2.75
2023-09-23T22:35:50.539Z,4.63
2023-09-23T22:38:16.890Z,2.57
2023-09-23T22:40:43.330Z,4.28
2023-09-23T22:43:09.682Z,2.85
2023-09-23T22:45:39.445Z,2.38
2023-09-23T22:48:06.748Z,3.20
2023-09-23T22:50:33.434Z,2.90
2023-09-23T22:52:59.801Z,3.15
2023-09-23T22:55:26.201Z,1.80
2023-09-23T22:57:52.531Z,2.88
2023-09-23T23:00:22.441Z,2.42
2023-09-23T23:02:49.238Z,4.07
2023-09-23T23:05:18.685Z,3.47
2023-09-23T23:07:49.003Z,3.65
2023-09-23T23:10:16.084Z,6.35
2023-09-23T23:12:46.811Z,3.70
2023-09-23T23:15:16.443Z,3.73
2023-09-23T23:17:45.628Z,2.25
2023-09-23T23:20:22.671Z,3.72
2023-09-23T23:22:49.830Z,5.63
2023-09-23T23:25:16.338Z,3.65
2023-09-23T23:27:42.887Z,2.63
2023-09-23T23:30:10.277Z,3.03
2023-09-23T23:32:36.618Z,1.90
2023-09-23T23:35:02.928Z,2.80
2023-09-23T23:37:29.226Z,3.63
2023-09-23T23:39:57.173Z,2.47
2023-09-23T23:42:23.468Z,3.03
2023-09-23T23:44:53.162Z,2.05
2023-09-23T23:47:24.110Z,3.30
2023-09-23T23:49:51.146Z,2.58
2023-09-23T23:52:25.082Z,3.07
2023-09-23T23:54:51.432Z,1.92
2023-09-23T23:57:17.878Z,4.65
2023-09-23T23:59:44.797Z,2.70
